sensor_id;sensor_type;location;lat;lon;timestamp;temperature;humidity
58568;DHT22;44354;46.192;-1.076;2022-08-19T00:00:37;17.40;99.90
58568;DHT22;44354;46.192;-1.076;2022-08-19T00:03:04;17.50;99.90
58568;DHT22;44354;46.192;-1.076;2022-08-19T00:05:30;17.40;99.90
58568;DHT22;44354;46.192;-1.076;2022-08-19T00:07:57;17.40;99.90
58568;DHT22;44354;46.192;-1.076;2022-08-19T00:10:23;17.40;99.90
58568;DHT22;44354;46.192;-1.076;2022-08-19T00:12:50;17.50;99.90
58568;DHT22;44354;46.192;-1.076;2022-08-19T00:15:18;17.40;99.90
58568;DHT22;44354;46.192;-1.076;2022-08-19T00:17:44;17.40;99.90
58568;DHT22;44354;46.192;-1.076;2022-08-19T00:20:13;17.50;99.90
58568;DHT22;44354;46.192;-1.076;2022-08-19T00:22:42;17.50;99.90
58568;DHT22;44354;46.192;-1.076;2022-08-19T00:25:08;17.50;99.90
58568;DHT22;44354;46.192;-1.076;2022-08-19T00:27:34;17.50;99.90
58568;DHT22;44354;46.192;-1.076;2022-08-19T00:29:59;17.50;99.90
58568;DHT22;44354;46.192;-1.076;2022-08-19T00:32:27;17.50;99.90
58568;DHT22;44354;46.192;-1.076;2022-08-19T00:34:53;17.50;99.90
58568;DHT22;44354;46.192;-1.076;2022-08-19T00:37:23;17.50;99.90
58568;DHT22;44354;46.192;-1.076;2022-08-19T00:39:50;17.50;99.90
58568;DHT22;44354;46.192;-1.076;2022-08-19T00:42:18;17.60;99.90
58568;DHT22;44354;46.192;-1.076;2022-08-19T00:44:44;17.60;99.90
58568;DHT22;44354;46.192;-1.076;2022-08-19T00:47:10;17.60;99.90
58568;DHT22;44354;46.192;-1.076;2022-08-19T00:49:41;17.70;99.90
58568;DHT22;44354;46.192;-1.076;2022-08-19T00:52:13;17.80;99.90
58568;DHT22;44354;46.192;-1.076;2022-08-19T00:54:40;17.80;99.90
58568;DHT22;44354;46.192;-1.076;2022-08-19T00:57:09;17.80;99.90
58568;DHT22;44354;46.192;-1.076;2022-08-19T00:59:37;17.90;99.90
58568;DHT22;44354;46.192;-1.076;2022-08-19T01:02:04;17.90;99.90
58568;DHT22;44354;46.192;-1.076;2022-08-19T01:04:29;18.00;99.90
58568;DHT22;44354;46.192;-1.076;2022-08-19T01:06:56;18.00;99.90
58568;DHT22;44354;46.192;-1.076;2022-08-19T01:09:22;18.10;99.90
58568;DHT22;44354;46.192;-1.076;2022-08-19T01:11:48;18.10;99.90
58568;DHT22;44354;46.192;-1.076;2022-08-19T01:14:15;18.10;99.90
58568;DHT22;44354;46.192;-1.076;2022-08-19T01:16:43;18.10;99.90
58568;DHT22;44354;46.192;-1.076;2022-08-19T01:19:33;18.20;99.90
58568;DHT22;44354;46.192;-1.076;2022-08-19T01:24:50;18.20;99.90
58568;DHT22;44354;46.192;-1.076;2022-08-19T01:27:17;18.20;99.90
58568;DHT22;44354;46.192;-1.076;2022-08-19T01:29:43;18.20;99.90
58568;DHT22;44354;46.192;-1.076;2022-08-19T01:32:13;18.30;99.90
58568;DHT22;44354;46.192;-1.076;2022-08-19T01:34:40;18.30;99.90
58568;DHT22;44354;46.192;-1.076;2022-08-19T01:37:07;18.30;99.90
58568;DHT22;44354;46.192;-1.076;2022-08-19T01:39:33;18.30;99.90
58568;DHT22;44354;46.192;-1.076;2022-08-19T01:41:59;18.30;99.90
58568;DHT22;44354;46.192;-1.076;2022-08-19T01:44:28;18.30;99.90
58568;DHT22;44354;46.192;-1.076;2022-08-19T01:46:54;18.30;99.90
58568;DHT22;44354;46.192;-1.076;2022-08-19T01:49:22;18.30;99.90
58568;DHT22;44354;46.192;-1.076;2022-08-19T01:51:48;18.30;99.90
58568;DHT22;44354;46.192;-1.076;2022-08-19T01:54:16;18.30;99.90
58568;DHT22;44354;46.192;-1.076;2022-08-19T01:56:42;18.30;99.90
58568;DHT22;44354;46.192;-1.076;2022-08-19T01:59:16;18.40;99.90
58568;DHT22;44354;46.192;-1.076;2022-08-19T02:01:43;18.30;99.90
58568;DHT22;44354;46.192;-1.076;2022-08-19T02:04:08;18.40;99.90
58568;DHT22;44354;46.192;-1.076;2022-08-19T02:06:34;18.40;99.90
58568;DHT22;44354;46.192;-1.076;2022-08-19T02:09:01;18.40;99.90
58568;DHT22;44354;46.192;-1.076;2022-08-19T02:11:30;18.40;99.90
58568;DHT22;44354;46.192;-1.076;2022-08-19T02:13:57;18.50;99.90
58568;DHT22;44354;46.192;-1.076;2022-08-19T02:16:23;18.50;99.90
58568;DHT22;44354;46.192;-1.076;2022-08-19T02:18:49;18.50;99.90
58568;DHT22;44354;46.192;-1.076;2022-08-19T02:21:21;18.50;99.90
58568;DHT22;44354;46.192;-1.076;2022-08-19T02:23:48;18.50;99.90
58568;DHT22;44354;46.192;-1.076;2022-08-19T02:26:14;18.50;99.90
58568;DHT22;44354;46.192;-1.076;2022-08-19T02:28:41;18.50;99.90
58568;DHT22;44354;46.192;-1.076;2022-08-19T02:31:19;18.50;99.90
58568;DHT22;44354;46.192;-1.076;2022-08-19T02:33:46;18.50;99.90
58568;DHT22;44354;46.192;-1.076;2022-08-19T02:36:14;18.50;99.90
58568;DHT22;44354;46.192;-1.076;2022-08-19T02:38:40;18.50;99.90
58568;DHT22;44354;46.192;-1.076;2022-08-19T02:41:12;18.50;99.90
58568;DHT22;44354;46.192;-1.076;2022-08-19T02:43:39;18.50;99.90
58568;DHT22;44354;46.192;-1.076;2022-08-19T02:46:19;18.50;99.90
58568;DHT22;44354;46.192;-1.076;2022-08-19T02:48:51;18.50;99.90
58568;DHT22;44354;46.192;-1.076;2022-08-19T02:51:28;18.50;99.90
58568;DHT22;44354;46.192;-1.076;2022-08-19T02:53:54;18.50;99.90
58568;DHT22;44354;46.192;-1.076;2022-08-19T02:56:20;18.40;99.90
58568;DHT22;44354;46.192;-1.076;2022-08-19T02:58:47;18.40;99.90
58568;DHT22;44354;46.192;-1.076;2022-08-19T03:01:21;18.40;99.90
58568;DHT22;44354;46.192;-1.076;2022-08-19T03:03:47;18.40;99.90
58568;DHT22;44354;46.192;-1.076;2022-08-19T03:06:14;18.40;99.90
58568;DHT22;44354;46.192;-1.076;2022-08-19T03:08:42;18.40;99.90
58568;DHT22;44354;46.192;-1.076;2022-08-19T03:11:22;18.30;99.90
58568;DHT22;44354;46.192;-1.076;2022-08-19T03:13:48;18.30;99.90
58568;DHT22;44354;46.192;-1.076;2022-08-19T03:16:18;18.30;99.90
58568;DHT22;44354;46.192;-1.076;2022-08-19T03:18:45;18.30;99.90
58568;DHT22;44354;46.192;-1.076;2022-08-19T03:21:18;18.30;99.90
58568;DHT22;44354;46.192;-1.076;2022-08-19T03:23:45;18.30;99.90
58568;DHT22;44354;46.192;-1.076;2022-08-19T03:26:11;18.30;99.90
58568;DHT22;44354;46.192;-1.076;2022-08-19T03:28:36;18.30;99.90
58568;DHT22;44354;46.192;-1.076;2022-08-19T03:31:11;18.30;99.90
58568;DHT22;44354;46.192;-1.076;2022-08-19T03:33:38;18.30;99.90
58568;DHT22;44354;46.192;-1.076;2022-08-19T03:38:31;18.30;99.90
58568;DHT22;44354;46.192;-1.076;2022-08-19T03:40:57;18.30;99.90
58568;DHT22;44354;46.192;-1.076;2022-08-19T03:43:24;18.30;99.90
58568;DHT22;44354;46.192;-1.076;2022-08-19T03:46:02;18.30;99.90
58568;DHT22;44354;46.192;-1.076;2022-08-19T03:48:29;18.30;99.90
58568;DHT22;44354;46.192;-1.076;2022-08-19T03:50:56;18.30;99.90
58568;DHT22;44354;46.192;-1.076;2022-08-19T03:53:24;18.30;99.90
58568;DHT22;44354;46.192;-1.076;2022-08-19T03:55:51;18.30;99.90
58568;DHT22;44354;46.192;-1.076;2022-08-19T03:58:18;18.30;99.90
58568;DHT22;44354;46.192;-1.076;2022-08-19T04:00:43;18.30;99.90
58568;DHT22;44354;46.192;-1.076;2022-08-19T04:03:09;18.30;99.90
58568;DHT22;44354;46.192;-1.076;2022-08-19T04:05:35;18.30;99.90
58568;DHT22;44354;46.192;-1.076;2022-08-19T04:08:00;18.30;99.90
58568;DHT22;44354;46.192;-1.076;2022-08-19T04:10:27;18.30;99.90
58568;DHT22;44354;46.192;-1.076;2022-08-19T04:12:53;18.30;99.90
58568;DHT22;44354;46.192;-1.076;2022-08-19T04:15:19;18.30;99.90
58568;DHT22;44354;46.192;-1.076;2022-08-19T04:17:45;18.30;99.90
58568;DHT22;44354;46.192;-1.076;2022-08-19T04:20:11;18.30;99.90
58568;DHT22;44354;46.192;-1.076;2022-08-19T04:22:37;18.30;99.90
58568;DHT22;44354;46.192;-1.076;2022-08-19T04:25:03;18.20;99.90
58568;DHT22;44354;46.192;-1.076;2022-08-19T04:27:28;18.30;99.90
58568;DHT22;44354;46.192;-1.076;2022-08-19T04:29:54;18.30;99.90
58568;DHT22;44354;46.192;-1.076;2022-08-19T04:32:20;18.30;99.90
58568;DHT22;44354;46.192;-1.076;2022-08-19T04:34:46;18.30;99.90
58568;DHT22;44354;46.192;-1.076;2022-08-19T04:37:12;18.30;99.90
58568;DHT22;44354;46.192;-1.076;2022-08-19T04:39:38;18.30;99.90
58568;DHT22;44354;46.192;-1.076;2022-08-19T04:42:23;18.30;99.90
58568;DHT22;44354;46.192;-1.076;2022-08-19T04:45:13;18.20;99.90
58568;DHT22;44354;46.192;-1.076;2022-08-19T04:47:41;18.20;99.90
58568;DHT22;44354;46.192;-1.076;2022-08-19T04:50:08;18.20;99.90
58568;DHT22;44354;46.192;-1.076;2022-08-19T04:52:34;18.30;99.90
58568;DHT22;44354;46.192;-1.076;2022-08-19T04:55:00;18.20;99.90
58568;DHT22;44354;46.192;-1.076;2022-08-19T04:57:26;18.30;99.90
58568;DHT22;44354;46.192;-1.076;2022-08-19T04:59:55;18.20;99.90
58568;DHT22;44354;46.192;-1.076;2022-08-19T05:02:21;18.20;99.90
58568;DHT22;44354;46.192;-1.076;2022-08-19T05:04:56;18.20;99.90
58568;DHT22;44354;46.192;-1.076;2022-08-19T05:07:22;18.20;99.90
58568;DHT22;44354;46.192;-1.076;2022-08-19T05:09:47;18.30;99.90
58568;DHT22;44354;46.192;-1.076;2022-08-19T05:12:13;18.30;99.90
58568;DHT22;44354;46.192;-1.076;2022-08-19T05:14:39;18.30;99.90
58568;DHT22;44354;46.192;-1.076;2022-08-19T05:17:04;18.30;99.90
58568;DHT22;44354;46.192;-1.076;2022-08-19T05:19:30;18.20;99.90
58568;DHT22;44354;46.192;-1.076;2022-08-19T05:22:14;18.20;99.90
58568;DHT22;44354;46.192;-1.076;2022-08-19T05:25:07;18.20;99.90
58568;DHT22;44354;46.192;-1.076;2022-08-19T05:27:33;18.30;99.90
58568;DHT22;44354;46.192;-1.076;2022-08-19T05:29:59;18.20;99.90
58568;DHT22;44354;46.192;-1.076;2022-08-19T05:32:25;18.20;99.90
58568;DHT22;44354;46.192;-1.076;2022-08-19T05:34:51;18.30;99.90
58568;DHT22;44354;46.192;-1.076;2022-08-19T05:37:17;18.30;99.90
58568;DHT22;44354;46.192;-1.076;2022-08-19T05:39:43;18.30;99.90
58568;DHT22;44354;46.192;-1.076;2022-08-19T05:42:11;18.30;99.90
58568;DHT22;44354;46.192;-1.076;2022-08-19T05:44:42;18.30;99.90
58568;DHT22;44354;46.192;-1.076;2022-08-19T05:47:12;18.30;99.90
58568;DHT22;44354;46.192;-1.076;2022-08-19T05:49:37;18.40;99.90
58568;DHT22;44354;46.192;-1.076;2022-08-19T05:52:10;18.40;99.90
58568;DHT22;44354;46.192;-1.076;2022-08-19T05:54:40;18.50;99.90
58568;DHT22;44354;46.192;-1.076;2022-08-19T05:57:09;18.50;99.90
58568;DHT22;44354;46.192;-1.076;2022-08-19T05:59:35;18.50;99.90
58568;DHT22;44354;46.192;-1.076;2022-08-19T06:02:02;18.50;99.90
58568;DHT22;44354;46.192;-1.076;2022-08-19T06:04:28;18.50;99.90
58568;DHT22;44354;46.192;-1.076;2022-08-19T06:06:54;18.50;99.90
58568;DHT22;44354;46.192;-1.076;2022-08-19T06:09:21;18.60;99.90
58568;DHT22;44354;46.192;-1.076;2022-08-19T06:11:55;18.60;99.90
58568;DHT22;44354;46.192;-1.076;2022-08-19T06:14:24;18.50;99.90
58568;DHT22;44354;46.192;-1.076;2022-08-19T06:16:50;18.50;99.90
58568;DHT22;44354;46.192;-1.076;2022-08-19T06:19:20;18.50;99.90
58568;DHT22;44354;46.192;-1.076;2022-08-19T06:21:48;18.50;99.90
58568;DHT22;44354;46.192;-1.076;2022-08-19T06:24:18;18.50;99.90
58568;DHT22;44354;46.192;-1.076;2022-08-19T06:26:46;18.60;99.90
58568;DHT22;44354;46.192;-1.076;2022-08-19T06:29:14;18.60;99.90
58568;DHT22;44354;46.192;-1.076;2022-08-19T06:31:43;18.70;99.90
58568;DHT22;44354;46.192;-1.076;2022-08-19T06:34:09;18.70;99.90
58568;DHT22;44354;46.192;-1.076;2022-08-19T06:36:38;18.80;99.90
58568;DHT22;44354;46.192;-1.076;2022-08-19T06:39:09;18.80;99.90
58568;DHT22;44354;46.192;-1.076;2022-08-19T06:41:38;18.80;99.90
58568;DHT22;44354;46.192;-1.076;2022-08-19T06:44:05;18.90;99.90
58568;DHT22;44354;46.192;-1.076;2022-08-19T06:46:31;18.90;99.90
58568;DHT22;44354;46.192;-1.076;2022-08-19T06:48:57;19.00;99.90
58568;DHT22;44354;46.192;-1.076;2022-08-19T06:51:23;19.20;99.90
58568;DHT22;44354;46.192;-1.076;2022-08-19T06:53:51;19.30;99.90
58568;DHT22;44354;46.192;-1.076;2022-08-19T06:56:23;19.30;99.90
58568;DHT22;44354;46.192;-1.076;2022-08-19T06:58:50;19.40;99.90
58568;DHT22;44354;46.192;-1.076;2022-08-19T07:01:19;19.60;99.90
58568;DHT22;44354;46.192;-1.076;2022-08-19T07:03:45;19.50;99.90
58568;DHT22;44354;46.192;-1.076;2022-08-19T07:06:15;19.50;99.90
58568;DHT22;44354;46.192;-1.076;2022-08-19T07:08:46;19.40;99.90
58568;DHT22;44354;46.192;-1.076;2022-08-19T07:11:14;19.50;99.90
58568;DHT22;44354;46.192;-1.076;2022-08-19T07:13:41;19.60;99.90
58568;DHT22;44354;46.192;-1.076;2022-08-19T07:16:10;19.60;99.90
58568;DHT22;44354;46.192;-1.076;2022-08-19T07:18:38;19.70;99.90
58568;DHT22;44354;46.192;-1.076;2022-08-19T07:21:10;19.60;99.90
58568;DHT22;44354;46.192;-1.076;2022-08-19T07:23:36;19.60;99.90
58568;DHT22;44354;46.192;-1.076;2022-08-19T07:26:20;19.50;99.90
58568;DHT22;44354;46.192;-1.076;2022-08-19T07:28:47;19.60;99.90
58568;DHT22;44354;46.192;-1.076;2022-08-19T07:31:16;19.70;99.90
58568;DHT22;44354;46.192;-1.076;2022-08-19T07:33:44;19.80;99.90
58568;DHT22;44354;46.192;-1.076;2022-08-19T07:36:12;19.70;99.90
58568;DHT22;44354;46.192;-1.076;2022-08-19T07:38:40;19.60;99.90
58568;DHT22;44354;46.192;-1.076;2022-08-19T07:41:06;19.60;99.90
58568;DHT22;44354;46.192;-1.076;2022-08-19T07:43:33;19.70;99.90
58568;DHT22;44354;46.192;-1.076;2022-08-19T07:45:58;19.70;99.90
58568;DHT22;44354;46.192;-1.076;2022-08-19T07:48:26;19.70;99.90
58568;DHT22;44354;46.192;-1.076;2022-08-19T07:50:56;19.70;99.90
58568;DHT22;44354;46.192;-1.076;2022-08-19T07:53:23;19.70;99.90
58568;DHT22;44354;46.192;-1.076;2022-08-19T07:55:50;19.80;99.90
58568;DHT22;44354;46.192;-1.076;2022-08-19T07:58:18;19.80;99.90
58568;DHT22;44354;46.192;-1.076;2022-08-19T08:00:45;19.90;99.90
58568;DHT22;44354;46.192;-1.076;2022-08-19T08:03:12;20.00;99.90
58568;DHT22;44354;46.192;-1.076;2022-08-19T08:05:38;20.20;99.90
58568;DHT22;44354;46.192;-1.076;2022-08-19T08:08:22;20.20;99.90
58568;DHT22;44354;46.192;-1.076;2022-08-19T08:11:07;20.40;99.90
58568;DHT22;44354;46.192;-1.076;2022-08-19T08:13:32;20.50;99.90
58568;DHT22;44354;46.192;-1.076;2022-08-19T08:16:01;20.60;99.90
58568;DHT22;44354;46.192;-1.076;2022-08-19T08:18:27;20.70;99.90
58568;DHT22;44354;46.192;-1.076;2022-08-19T08:20:53;20.70;99.90
58568;DHT22;44354;46.192;-1.076;2022-08-19T08:23:18;20.70;99.90
58568;DHT22;44354;46.192;-1.076;2022-08-19T08:25:56;20.60;99.90
58568;DHT22;44354;46.192;-1.076;2022-08-19T08:28:23;20.50;99.90
58568;DHT22;44354;46.192;-1.076;2022-08-19T08:30:50;20.50;99.90
58568;DHT22;44354;46.192;-1.076;2022-08-19T08:33:21;20.50;99.90
58568;DHT22;44354;46.192;-1.076;2022-08-19T08:35:47;20.50;99.90
58568;DHT22;44354;46.192;-1.076;2022-08-19T08:38:13;20.50;99.90
58568;DHT22;44354;46.192;-1.076;2022-08-19T08:40:44;20.50;99.90
58568;DHT22;44354;46.192;-1.076;2022-08-19T08:43:35;20.60;99.90
58568;DHT22;44354;46.192;-1.076;2022-08-19T08:46:07;20.60;99.90
58568;DHT22;44354;46.192;-1.076;2022-08-19T08:48:39;20.70;99.90
58568;DHT22;44354;46.192;-1.076;2022-08-19T08:51:14;20.70;99.90
58568;DHT22;44354;46.192;-1.076;2022-08-19T08:53:44;20.70;99.90
58568;DHT22;44354;46.192;-1.076;2022-08-19T08:56:11;20.80;97.00
58568;DHT22;44354;46.192;-1.076;2022-08-19T08:59:00;20.80;98.60
58568;DHT22;44354;46.192;-1.076;2022-08-19T09:01:27;20.90;85.90
58568;DHT22;44354;46.192;-1.076;2022-08-19T09:03:53;21.10;32.90
58568;DHT22;44354;46.192;-1.076;2022-08-19T09:09:17;21.40;1.00
58568;DHT22;44354;46.192;-1.076;2022-08-19T09:17:13;21.80;1.00
58568;DHT22;44354;46.192;-1.076;2022-08-19T09:19:55;22.00;1.00
58568;DHT22;44354;46.192;-1.076;2022-08-19T09:22:22;22.20;1.00
58568;DHT22;44354;46.192;-1.076;2022-08-19T09:24:49;22.40;99.90
58568;DHT22;44354;46.192;-1.076;2022-08-19T09:27:18;22.30;99.90
58568;DHT22;44354;46.192;-1.076;2022-08-19T09:29:43;22.30;99.90
58568;DHT22;44354;46.192;-1.076;2022-08-19T09:32:09;22.00;99.90
58568;DHT22;44354;46.192;-1.076;2022-08-19T09:34:35;21.90;99.90
58568;DHT22;44354;46.192;-1.076;2022-08-19T09:37:01;21.90;1.00
58568;DHT22;44354;46.192;-1.076;2022-08-19T09:39:28;22.10;1.00
58568;DHT22;44354;46.192;-1.076;2022-08-19T09:41:53;22.00;99.90
58568;DHT22;44354;46.192;-1.076;2022-08-19T09:44:19;21.90;99.90
58568;DHT22;44354;46.192;-1.076;2022-08-19T09:46:48;21.90;1.00
58568;DHT22;44354;46.192;-1.076;2022-08-19T09:49:14;21.90;1.00
58568;DHT22;44354;46.192;-1.076;2022-08-19T09:51:39;21.80;1.00
58568;DHT22;44354;46.192;-1.076;2022-08-19T09:54:05;22.10;1.00
58568;DHT22;44354;46.192;-1.076;2022-08-19T09:56:32;22.30;99.90
58568;DHT22;44354;46.192;-1.076;2022-08-19T09:58:59;22.40;99.90
58568;DHT22;44354;46.192;-1.076;2022-08-19T10:01:27;22.40;99.90
58568;DHT22;44354;46.192;-1.076;2022-08-19T10:03:55;22.50;99.90
58568;DHT22;44354;46.192;-1.076;2022-08-19T10:06:23;22.60;99.90
58568;DHT22;44354;46.192;-1.076;2022-08-19T10:08:50;22.60;99.90
58568;DHT22;44354;46.192;-1.076;2022-08-19T10:11:18;22.50;99.90
58568;DHT22;44354;46.192;-1.076;2022-08-19T10:13:44;22.70;99.90
58568;DHT22;44354;46.192;-1.076;2022-08-19T10:16:14;22.90;99.90
58568;DHT22;44354;46.192;-1.076;2022-08-19T10:18:41;22.90;99.90
58568;DHT22;44354;46.192;-1.076;2022-08-19T10:21:15;22.70;99.90
58568;DHT22;44354;46.192;-1.076;2022-08-19T10:23:44;22.50;99.90
58568;DHT22;44354;46.192;-1.076;2022-08-19T10:26:14;22.50;99.90
58568;DHT22;44354;46.192;-1.076;2022-08-19T10:28:41;22.50;99.90
58568;DHT22;44354;46.192;-1.076;2022-08-19T10:31:10;22.70;99.90
58568;DHT22;44354;46.192;-1.076;2022-08-19T10:33:37;22.70;99.90
58568;DHT22;44354;46.192;-1.076;2022-08-19T10:36:15;22.50;99.90
58568;DHT22;44354;46.192;-1.076;2022-08-19T10:38:43;22.20;99.90
58568;DHT22;44354;46.192;-1.076;2022-08-19T10:41:16;22.30;99.90
58568;DHT22;44354;46.192;-1.076;2022-08-19T10:43:43;22.30;99.90
58568;DHT22;44354;46.192;-1.076;2022-08-19T10:46:12;22.30;99.90
58568;DHT22;44354;46.192;-1.076;2022-08-19T10:48:39;22.40;99.90
58568;DHT22;44354;46.192;-1.076;2022-08-19T10:51:05;22.80;99.90
58568;DHT22;44354;46.192;-1.076;2022-08-19T10:53:49;23.10;99.90
58568;DHT22;44354;46.192;-1.076;2022-08-19T10:56:15;23.30;99.90
58568;DHT22;44354;46.192;-1.076;2022-08-19T10:59:00;23.40;99.90
58568;DHT22;44354;46.192;-1.076;2022-08-19T11:01:29;23.50;99.90
58568;DHT22;44354;46.192;-1.076;2022-08-19T11:03:56;23.10;99.90
58568;DHT22;44354;46.192;-1.076;2022-08-19T11:06:25;23.20;99.90
58568;DHT22;44354;46.192;-1.076;2022-08-19T11:08:52;23.30;99.90
58568;DHT22;44354;46.192;-1.076;2022-08-19T11:11:18;23.30;99.90
58568;DHT22;44354;46.192;-1.076;2022-08-19T11:13:44;23.40;99.90
58568;DHT22;44354;46.192;-1.076;2022-08-19T11:16:16;23.50;99.90
58568;DHT22;44354;46.192;-1.076;2022-08-19T11:18:45;23.20;99.90
58568;DHT22;44354;46.192;-1.076;2022-08-19T11:21:19;22.80;99.90
58568;DHT22;44354;46.192;-1.076;2022-08-19T11:23:47;22.60;99.90
58568;DHT22;44354;46.192;-1.076;2022-08-19T11:26:14;22.40;99.90
58568;DHT22;44354;46.192;-1.076;2022-08-19T11:28:41;22.40;99.90
58568;DHT22;44354;46.192;-1.076;2022-08-19T11:31:16;22.40;99.90
58568;DHT22;44354;46.192;-1.076;2022-08-19T11:33:42;22.50;99.90
58568;DHT22;44354;46.192;-1.076;2022-08-19T11:36:08;22.70;99.90
58568;DHT22;44354;46.192;-1.076;2022-08-19T11:38:35;23.40;99.90
58568;DHT22;44354;46.192;-1.076;2022-08-19T11:41:07;23.80;99.90
58568;DHT22;44354;46.192;-1.076;2022-08-19T11:43:34;24.00;99.90
58568;DHT22;44354;46.192;-1.076;2022-08-19T11:46:06;23.70;99.90
58568;DHT22;44354;46.192;-1.076;2022-08-19T11:48:32;23.60;99.90
58568;DHT22;44354;46.192;-1.076;2022-08-19T11:50:58;23.60;99.90
58568;DHT22;44354;46.192;-1.076;2022-08-19T11:53:24;23.50;99.90
58568;DHT22;44354;46.192;-1.076;2022-08-19T11:55:52;23.40;99.90
58568;DHT22;44354;46.192;-1.076;2022-08-19T11:58:21;23.40;99.90
58568;DHT22;44354;46.192;-1.076;2022-08-19T12:00:47;23.40;99.90
58568;DHT22;44354;46.192;-1.076;2022-08-19T12:03:13;23.70;99.90
58568;DHT22;44354;46.192;-1.076;2022-08-19T12:05:39;23.80;99.90
58568;DHT22;44354;46.192;-1.076;2022-08-19T12:08:06;24.00;99.90
58568;DHT22;44354;46.192;-1.076;2022-08-19T12:10:33;23.80;99.90
58568;DHT22;44354;46.192;-1.076;2022-08-19T12:12:59;23.50;99.90
58568;DHT22;44354;46.192;-1.076;2022-08-19T12:15:25;23.20;99.90
58568;DHT22;44354;46.192;-1.076;2022-08-19T12:17:52;22.80;99.90
58568;DHT22;44354;46.192;-1.076;2022-08-19T12:20:20;22.60;99.90
58568;DHT22;44354;46.192;-1.076;2022-08-19T12:22:46;22.50;99.90
58568;DHT22;44354;46.192;-1.076;2022-08-19T12:25:12;22.40;99.90
58568;DHT22;44354;46.192;-1.076;2022-08-19T12:27:38;22.50;99.90
58568;DHT22;44354;46.192;-1.076;2022-08-19T12:30:06;22.50;99.90
58568;DHT22;44354;46.192;-1.076;2022-08-19T12:32:32;22.80;99.90
58568;DHT22;44354;46.192;-1.076;2022-08-19T12:34:57;22.80;99.90
58568;DHT22;44354;46.192;-1.076;2022-08-19T12:37:23;23.10;99.90
58568;DHT22;44354;46.192;-1.076;2022-08-19T12:39:49;23.10;99.90
58568;DHT22;44354;46.192;-1.076;2022-08-19T12:42:15;23.00;99.90
58568;DHT22;44354;46.192;-1.076;2022-08-19T12:44:43;23.00;99.90
58568;DHT22;44354;46.192;-1.076;2022-08-19T12:47:10;22.80;99.90
58568;DHT22;44354;46.192;-1.076;2022-08-19T12:49:37;22.90;99.90
58568;DHT22;44354;46.192;-1.076;2022-08-19T12:52:08;22.80;99.90
58568;DHT22;44354;46.192;-1.076;2022-08-19T12:54:35;22.90;99.90
58568;DHT22;44354;46.192;-1.076;2022-08-19T12:57:06;23.00;99.90
58568;DHT22;44354;46.192;-1.076;2022-08-19T12:59:34;23.30;99.90
58568;DHT22;44354;46.192;-1.076;2022-08-19T13:02:00;23.40;99.90
58568;DHT22;44354;46.192;-1.076;2022-08-19T13:04:25;23.70;99.90
58568;DHT22;44354;46.192;-1.076;2022-08-19T13:06:51;23.90;99.90
58568;DHT22;44354;46.192;-1.076;2022-08-19T13:09:17;24.10;99.90
58568;DHT22;44354;46.192;-1.076;2022-08-19T13:11:42;24.20;99.90
58568;DHT22;44354;46.192;-1.076;2022-08-19T13:14:08;24.10;99.90
58568;DHT22;44354;46.192;-1.076;2022-08-19T13:16:36;23.90;99.90
58568;DHT22;44354;46.192;-1.076;2022-08-19T13:19:01;24.30;99.90
58568;DHT22;44354;46.192;-1.076;2022-08-19T13:21:29;24.50;99.90
58568;DHT22;44354;46.192;-1.076;2022-08-19T13:23:56;24.30;99.90
58568;DHT22;44354;46.192;-1.076;2022-08-19T13:26:22;24.40;99.90
58568;DHT22;44354;46.192;-1.076;2022-08-19T13:28:48;24.50;99.90
58568;DHT22;44354;46.192;-1.076;2022-08-19T13:31:46;24.30;99.90
58568;DHT22;44354;46.192;-1.076;2022-08-19T13:34:33;24.20;99.90
58568;DHT22;44354;46.192;-1.076;2022-08-19T13:37:01;23.80;99.90
58568;DHT22;44354;46.192;-1.076;2022-08-19T13:39:31;23.90;99.90
58568;DHT22;44354;46.192;-1.076;2022-08-19T13:41:58;24.20;99.90
58568;DHT22;44354;46.192;-1.076;2022-08-19T13:44:26;23.90;99.90
58568;DHT22;44354;46.192;-1.076;2022-08-19T13:46:59;23.70;99.90
58568;DHT22;44354;46.192;-1.076;2022-08-19T13:49:28;23.80;99.90
58568;DHT22;44354;46.192;-1.076;2022-08-19T13:51:56;23.90;99.90
58568;DHT22;44354;46.192;-1.076;2022-08-19T13:54:22;24.20;99.90
58568;DHT22;44354;46.192;-1.076;2022-08-19T13:56:48;24.20;99.90
58568;DHT22;44354;46.192;-1.076;2022-08-19T13:59:13;24.00;99.90
58568;DHT22;44354;46.192;-1.076;2022-08-19T14:01:40;24.10;99.90
58568;DHT22;44354;46.192;-1.076;2022-08-19T14:04:07;24.00;99.90
58568;DHT22;44354;46.192;-1.076;2022-08-19T14:06:33;23.90;99.90
58568;DHT22;44354;46.192;-1.076;2022-08-19T14:08:59;23.90;99.90
58568;DHT22;44354;46.192;-1.076;2022-08-19T14:11:25;23.90;99.90
58568;DHT22;44354;46.192;-1.076;2022-08-19T14:13:50;23.70;99.90
58568;DHT22;44354;46.192;-1.076;2022-08-19T14:16:16;23.50;99.90
58568;DHT22;44354;46.192;-1.076;2022-08-19T14:18:42;23.50;99.90
58568;DHT22;44354;46.192;-1.076;2022-08-19T14:21:17;23.60;99.90
58568;DHT22;44354;46.192;-1.076;2022-08-19T14:23:45;23.60;99.90
58568;DHT22;44354;46.192;-1.076;2022-08-19T14:26:14;23.70;99.90
58568;DHT22;44354;46.192;-1.076;2022-08-19T14:28:41;23.70;99.90
58568;DHT22;44354;46.192;-1.076;2022-08-19T14:31:08;23.80;99.90
58568;DHT22;44354;46.192;-1.076;2022-08-19T14:33:34;23.80;99.90
58568;DHT22;44354;46.192;-1.076;2022-08-19T14:36:00;23.80;99.90
58568;DHT22;44354;46.192;-1.076;2022-08-19T14:38:26;23.80;99.90
58568;DHT22;44354;46.192;-1.076;2022-08-19T14:40:52;23.70;99.90
58568;DHT22;44354;46.192;-1.076;2022-08-19T14:43:18;23.70;99.90
58568;DHT22;44354;46.192;-1.076;2022-08-19T14:45:44;23.70;99.90
58568;DHT22;44354;46.192;-1.076;2022-08-19T14:48:10;23.60;99.90
58568;DHT22;44354;46.192;-1.076;2022-08-19T14:50:36;23.40;99.90
58568;DHT22;44354;46.192;-1.076;2022-08-19T14:53:07;23.50;99.90
58568;DHT22;44354;46.192;-1.076;2022-08-19T14:55:34;23.60;99.90
58568;DHT22;44354;46.192;-1.076;2022-08-19T14:58:00;23.70;99.90
58568;DHT22;44354;46.192;-1.076;2022-08-19T15:00:26;23.80;99.90
58568;DHT22;44354;46.192;-1.076;2022-08-19T15:02:52;23.80;99.90
58568;DHT22;44354;46.192;-1.076;2022-08-19T15:05:20;23.90;99.90
58568;DHT22;44354;46.192;-1.076;2022-08-19T15:07:46;23.70;99.90
58568;DHT22;44354;46.192;-1.076;2022-08-19T15:10:15;23.60;99.90
58568;DHT22;44354;46.192;-1.076;2022-08-19T15:12:41;23.30;99.90
58568;DHT22;44354;46.192;-1.076;2022-08-19T15:15:09;23.20;99.90
58568;DHT22;44354;46.192;-1.076;2022-08-19T15:17:38;23.30;99.90
58568;DHT22;44354;46.192;-1.076;2022-08-19T15:20:06;23.00;99.90
58568;DHT22;44354;46.192;-1.076;2022-08-19T15:22:32;23.00;99.90
58568;DHT22;44354;46.192;-1.076;2022-08-19T15:24:58;23.00;99.90
58568;DHT22;44354;46.192;-1.076;2022-08-19T15:27:23;23.00;99.90
58568;DHT22;44354;46.192;-1.076;2022-08-19T15:29:49;23.10;99.90
58568;DHT22;44354;46.192;-1.076;2022-08-19T15:32:15;23.10;99.90
58568;DHT22;44354;46.192;-1.076;2022-08-19T15:34:41;23.20;99.90
58568;DHT22;44354;46.192;-1.076;2022-08-19T15:37:06;23.30;99.90